sensor_id;sensor_type;location;lat;lon;timestamp;P1;durP1;ratioP1;P2;durP2;ratioP2
45642;SDS011;31358;46.008;11.144;2024-02-14T00:02:25;2.70;;;1.17;;
45642;SDS011;31358;46.008;11.144;2024-02-14T00:04:52;1.85;;;0.95;;
45642;SDS011;31358;46.008;11.144;2024-02-14T00:07:18;2.65;;;1.17;;
45642;SDS011;31358;46.008;11.144;2024-02-14T00:09:44;3.53;;;1.50;;
45642;SDS011;31358;46.008;11.144;2024-02-14T00:12:10;2.85;;;1.00;;
45642;SDS011;31358;46.008;11.144;2024-02-14T00:14:36;2.40;;;1.05;;
45642;SDS011;31358;46.008;11.144;2024-02-14T00:17:02;3.00;;;1.20;;
45642;SDS011;31358;46.008;11.144;2024-02-14T00:19:30;2.80;;;1.10;;
45642;SDS011;31358;46.008;11.144;2024-02-14T00:21:56;2.53;;;1.00;;
45642;SDS011;31358;46.008;11.144;2024-02-14T00:24:21;2.67;;;1.00;;
45642;SDS011;31358;46.008;11.144;2024-02-14T00:26:48;2.28;;;1.02;;
45642;SDS011;31358;46.008;11.144;2024-02-14T00:29:15;1.95;;;0.90;;
45642;SDS011;31358;46.008;11.144;2024-02-14T00:31:41;2.63;;;1.00;;
45642;SDS011;31358;46.008;11.144;2024-02-14T00:34:09;4.25;;;1.13;;
45642;SDS011;31358;46.008;11.144;2024-02-14T00:36:35;1.85;;;0.82;;
45642;SDS011;31358;46.008;11.144;2024-02-14T00:39:01;3.60;;;1.10;;
45642;SDS011;31358;46.008;11.144;2024-02-14T00:41:27;4.18;;;1.00;;
45642;SDS011;31358;46.008;11.144;2024-02-14T00:43:55;3.70;;;1.45;;
45642;SDS011;31358;46.008;11.144;2024-02-14T00:46:21;2.10;;;1.00;;
45642;SDS011;31358;46.008;11.144;2024-02-14T00:48:47;3.13;;;1.20;;
45642;SDS011;31358;46.008;11.144;2024-02-14T00:51:13;4.00;;;0.85;;
45642;SDS011;31358;46.008;11.144;2024-02-14T00:53:42;2.40;;;1.15;;
45642;SDS011;31358;46.008;11.144;2024-02-14T00:56:08;2.10;;;0.80;;
45642;SDS011;31358;46.008;11.144;2024-02-14T00:58:33;3.38;;;1.00;;
45642;SDS011;31358;46.008;11.144;2024-02-14T01:00:59;2.60;;;1.40;;
45642;SDS011;31358;46.008;11.144;2024-02-14T01:03:25;1.90;;;0.85;;
45642;SDS011;31358;46.008;11.144;2024-02-14T01:05:51;3.40;;;1.20;;
45642;SDS011;31358;46.008;11.144;2024-02-14T01:08:17;4.00;;;1.10;;
45642;SDS011;31358;46.008;11.144;2024-02-14T01:10:43;3.17;;;1.30;;
45642;SDS011;31358;46.008;11.144;2024-02-14T01:13:08;2.95;;;1.23;;
45642;SDS011;31358;46.008;11.144;2024-02-14T01:15:34;3.50;;;0.93;;
45642;SDS011;31358;46.008;11.144;2024-02-14T01:18:17;3.78;;;1.25;;
45642;SDS011;31358;46.008;11.144;2024-02-14T01:20:43;2.85;;;1.17;;
45642;SDS011;31358;46.008;11.144;2024-02-14T01:23:09;3.20;;;1.10;;
45642;SDS011;31358;46.008;11.144;2024-02-14T01:28:11;2.05;;;0.82;;
45642;SDS011;31358;46.008;11.144;2024-02-14T01:30:36;3.53;;;1.25;;
45642;SDS011;31358;46.008;11.144;2024-02-14T01:33:02;1.63;;;0.80;;
45642;SDS011;31358;46.008;11.144;2024-02-14T01:35:29;3.13;;;1.42;;
45642;SDS011;31358;46.008;11.144;2024-02-14T01:37:55;1.67;;;0.90;;
45642;SDS011;31358;46.008;11.144;2024-02-14T01:40:21;2.20;;;0.93;;
45642;SDS011;31358;46.008;11.144;2024-02-14T01:42:46;3.10;;;1.15;;
45642;SDS011;31358;46.008;11.144;2024-02-14T01:45:12;1.95;;;0.98;;
45642;SDS011;31358;46.008;11.144;2024-02-14T01:47:38;3.22;;;1.13;;
45642;SDS011;31358;46.008;11.144;2024-02-14T01:50:06;2.25;;;0.98;;
45642;SDS011;31358;46.008;11.144;2024-02-14T01:52:36;3.53;;;1.20;;
45642;SDS011;31358;46.008;11.144;2024-02-14T01:55:03;2.40;;;1.00;;
45642;SDS011;31358;46.008;11.144;2024-02-14T01:57:31;2.47;;;1.05;;
45642;SDS011;31358;46.008;11.144;2024-02-14T01:59:58;1.65;;;0.80;;
45642;SDS011;31358;46.008;11.144;2024-02-14T02:02:27;2.70;;;0.65;;
45642;SDS011;31358;46.008;11.144;2024-02-14T02:04:53;4.03;;;0.93;;
45642;SDS011;31358;46.008;11.144;2024-02-14T02:07:19;3.63;;;1.10;;
45642;SDS011;31358;46.008;11.144;2024-02-14T02:09:45;2.75;;;1.25;;
45642;SDS011;31358;46.008;11.144;2024-02-14T02:12:11;2.78;;;1.00;;
45642;SDS011;31358;46.008;11.144;2024-02-14T02:14:37;2.92;;;1.08;;
45642;SDS011;31358;46.008;11.144;2024-02-14T02:17:05;1.92;;;0.95;;
45642;SDS011;31358;46.008;11.144;2024-02-14T02:19:33;2.45;;;1.42;;
45642;SDS011;31358;46.008;11.144;2024-02-14T02:21:59;2.78;;;0.90;;
45642;SDS011;31358;46.008;11.144;2024-02-14T02:24:25;4.22;;;1.25;;
45642;SDS011;31358;46.008;11.144;2024-02-14T02:26:51;3.90;;;1.00;;
45642;SDS011;31358;46.008;11.144;2024-02-14T02:29:17;2.50;;;1.00;;
45642;SDS011;31358;46.008;11.144;2024-02-14T02:31:44;2.47;;;1.00;;
45642;SDS011;31358;46.008;11.144;2024-02-14T02:34:10;2.70;;;1.20;;
45642;SDS011;31358;46.008;11.144;2024-02-14T02:36:36;2.45;;;1.30;;
45642;SDS011;31358;46.008;11.144;2024-02-14T02:39:03;3.17;;;1.20;;
45642;SDS011;31358;46.008;11.144;2024-02-14T02:41:29;4.15;;;1.30;;
45642;SDS011;31358;46.008;11.144;2024-02-14T02:43:57;2.30;;;0.90;;
45642;SDS011;31358;46.008;11.144;2024-02-14T02:46:22;3.85;;;1.10;;
45642;SDS011;31358;46.008;11.144;2024-02-14T02:48:50;2.35;;;0.73;;
45642;SDS011;31358;46.008;11.144;2024-02-14T02:51:20;1.95;;;0.82;;
45642;SDS011;31358;46.008;11.144;2024-02-14T02:53:46;2.67;;;0.98;;
45642;SDS011;31358;46.008;11.144;2024-02-14T02:56:12;3.40;;;1.30;;
45642;SDS011;31358;46.008;11.144;2024-02-14T02:58:40;3.50;;;1.00;;
45642;SDS011;31358;46.008;11.144;2024-02-14T03:01:08;1.80;;;0.73;;
45642;SDS011;31358;46.008;11.144;2024-02-14T03:03:34;2.08;;;0.82;;
45642;SDS011;31358;46.008;11.144;2024-02-14T03:06:01;3.22;;;1.02;;
45642;SDS011;31358;46.008;11.144;2024-02-14T03:08:29;2.03;;;1.00;;
45642;SDS011;31358;46.008;11.144;2024-02-14T03:10:56;3.35;;;1.02;;
45642;SDS011;31358;46.008;11.144;2024-02-14T03:13:24;20.23;;;6.57;;
45642;SDS011;31358;46.008;11.144;2024-02-14T03:15:51;3.47;;;1.45;;
45642;SDS011;31358;46.008;11.144;2024-02-14T03:18:18;3.58;;;1.40;;
45642;SDS011;31358;46.008;11.144;2024-02-14T03:20:44;4.35;;;1.30;;
45642;SDS011;31358;46.008;11.144;2024-02-14T03:23:09;2.55;;;1.10;;
45642;SDS011;31358;46.008;11.144;2024-02-14T03:25:35;3.38;;;1.27;;
45642;SDS011;31358;46.008;11.144;2024-02-14T03:28:02;1.35;;;0.75;;
45642;SDS011;31358;46.008;11.144;2024-02-14T03:30:33;2.88;;;1.13;;
45642;SDS011;31358;46.008;11.144;2024-02-14T03:33:04;2.63;;;0.95;;
45642;SDS011;31358;46.008;11.144;2024-02-14T03:35:30;3.78;;;1.73;;
45642;SDS011;31358;46.008;11.144;2024-02-14T03:37:56;3.10;;;1.27;;
45642;SDS011;31358;46.008;11.144;2024-02-14T03:40:22;2.17;;;0.95;;
45642;SDS011;31358;46.008;11.144;2024-02-14T03:42:49;2.15;;;0.80;;
45642;SDS011;31358;46.008;11.144;2024-02-14T03:45:14;2.33;;;0.98;;
45642;SDS011;31358;46.008;11.144;2024-02-14T03:47:40;1.73;;;0.80;;
45642;SDS011;31358;46.008;11.144;2024-02-14T03:50:07;5.57;;;1.20;;
45642;SDS011;31358;46.008;11.144;2024-02-14T03:52:33;2.95;;;1.10;;
45642;SDS011;31358;46.008;11.144;2024-02-14T03:54:59;2.53;;;0.90;;
45642;SDS011;31358;46.008;11.144;2024-02-14T03:57:26;2.53;;;1.05;;
45642;SDS011;31358;46.008;11.144;2024-02-14T03:59:55;2.22;;;1.02;;
45642;SDS011;31358;46.008;11.144;2024-02-14T04:02:21;3.45;;;1.10;;
45642;SDS011;31358;46.008;11.144;2024-02-14T04:04:48;3.45;;;1.00;;
45642;SDS011;31358;46.008;11.144;2024-02-14T04:07:14;2.72;;;1.02;;
45642;SDS011;31358;46.008;11.144;2024-02-14T04:09:40;2.58;;;1.10;;
45642;SDS011;31358;46.008;11.144;2024-02-14T04:12:06;2.95;;;1.00;;
45642;SDS011;31358;46.008;11.144;2024-02-14T04:14:32;2.92;;;1.13;;
45642;SDS011;31358;46.008;11.144;2024-02-14T04:16:58;3.08;;;1.00;;
45642;SDS011;31358;46.008;11.144;2024-02-14T04:19:23;2.22;;;0.90;;
45642;SDS011;31358;46.008;11.144;2024-02-14T04:21:49;1.80;;;0.80;;
45642;SDS011;31358;46.008;11.144;2024-02-14T04:24:15;3.97;;;1.10;;
45642;SDS011;31358;46.008;11.144;2024-02-14T04:26:41;2.08;;;0.88;;
45642;SDS011;31358;46.008;11.144;2024-02-14T04:29:08;2.13;;;0.90;;
45642;SDS011;31358;46.008;11.144;2024-02-14T04:31:33;5.15;;;1.05;;
45642;SDS011;31358;46.008;11.144;2024-02-14T04:33:59;2.65;;;0.70;;
45642;SDS011;31358;46.008;11.144;2024-02-14T04:36:25;3.58;;;1.02;;
45642;SDS011;31358;46.008;11.144;2024-02-14T04:38:52;4.60;;;1.48;;
45642;SDS011;31358;46.008;11.144;2024-02-14T04:41:18;5.13;;;1.63;;
45642;SDS011;31358;46.008;11.144;2024-02-14T04:43:44;3.70;;;1.70;;
45642;SDS011;31358;46.008;11.144;2024-02-14T04:46:10;4.35;;;1.65;;
45642;SDS011;31358;46.008;11.144;2024-02-14T04:48:36;3.40;;;1.50;;
45642;SDS011;31358;46.008;11.144;2024-02-14T04:51:02;2.25;;;1.00;;
45642;SDS011;31358;46.008;11.144;2024-02-14T04:53:29;3.72;;;1.17;;
45642;SDS011;31358;46.008;11.144;2024-02-14T04:55:59;3.53;;;1.40;;
45642;SDS011;31358;46.008;11.144;2024-02-14T04:58:24;2.22;;;0.88;;
45642;SDS011;31358;46.008;11.144;2024-02-14T05:00:52;2.05;;;0.82;;
45642;SDS011;31358;46.008;11.144;2024-02-14T05:03:17;3.70;;;1.27;;
45642;SDS011;31358;46.008;11.144;2024-02-14T05:05:43;2.10;;;0.85;;
45642;SDS011;31358;46.008;11.144;2024-02-14T05:08:09;2.70;;;1.50;;
45642;SDS011;31358;46.008;11.144;2024-02-14T05:10:35;2.88;;;1.10;;
45642;SDS011;31358;46.008;11.144;2024-02-14T05:13:00;2.53;;;0.77;;
45642;SDS011;31358;46.008;11.144;2024-02-14T05:15:26;4.38;;;1.30;;
45642;SDS011;31358;46.008;11.144;2024-02-14T05:17:52;2.22;;;0.90;;
45642;SDS011;31358;46.008;11.144;2024-02-14T05:20:18;3.13;;;1.02;;
45642;SDS011;31358;46.008;11.144;2024-02-14T05:22:43;2.67;;;1.02;;
45642;SDS011;31358;46.008;11.144;2024-02-14T05:25:09;2.40;;;1.13;;
45642;SDS011;31358;46.008;11.144;2024-02-14T05:27:35;3.28;;;1.35;;
45642;SDS011;31358;46.008;11.144;2024-02-14T05:30:02;2.70;;;1.02;;
45642;SDS011;31358;46.008;11.144;2024-02-14T05:32:33;2.33;;;1.00;;
45642;SDS011;31358;46.008;11.144;2024-02-14T05:34:59;2.22;;;0.85;;
45642;SDS011;31358;46.008;11.144;2024-02-14T05:37:26;2.15;;;0.88;;
45642;SDS011;31358;46.008;11.144;2024-02-14T05:39:54;2.83;;;1.15;;
45642;SDS011;31358;46.008;11.144;2024-02-14T05:42:20;2.90;;;1.00;;
45642;SDS011;31358;46.008;11.144;2024-02-14T05:44:46;1.65;;;0.70;;
45642;SDS011;31358;46.008;11.144;2024-02-14T05:47:12;1.85;;;1.00;;
45642;SDS011;31358;46.008;11.144;2024-02-14T05:49:38;3.25;;;0.95;;
45642;SDS011;31358;46.008;11.144;2024-02-14T05:52:05;2.17;;;0.90;;
45642;SDS011;31358;46.008;11.144;2024-02-14T05:54:31;3.25;;;0.80;;
45642;SDS011;31358;46.008;11.144;2024-02-14T05:56:57;2.47;;;1.10;;
45642;SDS011;31358;46.008;11.144;2024-02-14T05:59:22;2.95;;;0.98;;
45642;SDS011;31358;46.008;11.144;2024-02-14T06:01:48;2.03;;;0.85;;
45642;SDS011;31358;46.008;11.144;2024-02-14T06:04:14;2.55;;;1.10;;
45642;SDS011;31358;46.008;11.144;2024-02-14T06:06:40;2.90;;;1.17;;
45642;SDS011;31358;46.008;11.144;2024-02-14T06:09:06;4.38;;;1.42;;
45642;SDS011;31358;46.008;11.144;2024-02-14T06:11:35;3.08;;;1.20;;
45642;SDS011;31358;46.008;11.144;2024-02-14T06:14:04;3.60;;;1.25;;
45642;SDS011;31358;46.008;11.144;2024-02-14T06:16:33;2.70;;;1.05;;
45642;SDS011;31358;46.008;11.144;2024-02-14T06:19:00;2.53;;;0.98;;
45642;SDS011;31358;46.008;11.144;2024-02-14T06:21:26;3.92;;;1.63;;
45642;SDS011;31358;46.008;11.144;2024-02-14T06:23:52;3.33;;;1.05;;
45642;SDS011;31358;46.008;11.144;2024-02-14T06:26:21;2.17;;;0.95;;
45642;SDS011;31358;46.008;11.144;2024-02-14T06:28:46;2.95;;;1.10;;
45642;SDS011;31358;46.008;11.144;2024-02-14T06:31:12;2.53;;;0.90;;
45642;SDS011;31358;46.008;11.144;2024-02-14T06:33:39;4.45;;;1.38;;
45642;SDS011;31358;46.008;11.144;2024-02-14T06:36:05;3.83;;;2.10;;
45642;SDS011;31358;46.008;11.144;2024-02-14T06:38:31;4.75;;;2.20;;
45642;SDS011;31358;46.008;11.144;2024-02-14T06:40:56;3.20;;;1.30;;
45642;SDS011;31358;46.008;11.144;2024-02-14T06:43:22;3.45;;;1.50;;
45642;SDS011;31358;46.008;11.144;2024-02-14T06:45:48;3.70;;;1.30;;
45642;SDS011;31358;46.008;11.144;2024-02-14T06:48:22;2.30;;;0.95;;
45642;SDS011;31358;46.008;11.144;2024-02-14T06:50:51;4.43;;;1.10;;
45642;SDS011;31358;46.008;11.144;2024-02-14T06:53:17;3.90;;;0.90;;
45642;SDS011;31358;46.008;11.144;2024-02-14T06:55:43;3.05;;;1.10;;
45642;SDS011;31358;46.008;11.144;2024-02-14T06:58:09;1.80;;;0.88;;
45642;SDS011;31358;46.008;11.144;2024-02-14T07:00:34;3.15;;;1.17;;
45642;SDS011;31358;46.008;11.144;2024-02-14T07:03:00;4.90;;;2.42;;
45642;SDS011;31358;46.008;11.144;2024-02-14T07:05:27;5.50;;;1.20;;
45642;SDS011;31358;46.008;11.144;2024-02-14T07:07:54;2.65;;;1.08;;
45642;SDS011;31358;46.008;11.144;2024-02-14T07:10:20;2.40;;;0.90;;
45642;SDS011;31358;46.008;11.144;2024-02-14T07:12:46;2.72;;;0.98;;
45642;SDS011;31358;46.008;11.144;2024-02-14T07:15:12;2.17;;;1.13;;
45642;SDS011;31358;46.008;11.144;2024-02-14T07:17:38;3.13;;;0.65;;
45642;SDS011;31358;46.008;11.144;2024-02-14T07:20:04;2.10;;;1.00;;
45642;SDS011;31358;46.008;11.144;2024-02-14T07:22:31;1.73;;;0.90;;
45642;SDS011;31358;46.008;11.144;2024-02-14T07:24:56;2.55;;;0.90;;
45642;SDS011;31358;46.008;11.144;2024-02-14T07:27:22;2.20;;;0.93;;
45642;SDS011;31358;46.008;11.144;2024-02-14T07:29:49;2.28;;;0.95;;
45642;SDS011;31358;46.008;11.144;2024-02-14T07:32:14;3.40;;;1.30;;
45642;SDS011;31358;46.008;11.144;2024-02-14T07:34:41;2.63;;;1.23;;
45642;SDS011;31358;46.008;11.144;2024-02-14T07:37:07;3.25;;;0.95;;
45642;SDS011;31358;46.008;11.144;2024-02-14T07:39:33;2.47;;;1.02;;
45642;SDS011;31358;46.008;11.144;2024-02-14T07:42:00;1.88;;;0.73;;
45642;SDS011;31358;46.008;11.144;2024-02-14T07:44:27;1.85;;;0.82;;
45642;SDS011;31358;46.008;11.144;2024-02-14T07:46:52;2.45;;;0.82;;
45642;SDS011;31358;46.008;11.144;2024-02-14T07:49:18;2.78;;;1.02;;
45642;SDS011;31358;46.008;11.144;2024-02-14T07:51:44;2.30;;;0.90;;
45642;SDS011;31358;46.008;11.144;2024-02-14T07:54:10;1.90;;;0.73;;
45642;SDS011;31358;46.008;11.144;2024-02-14T07:56:36;1.95;;;1.00;;
45642;SDS011;31358;46.008;11.144;2024-02-14T07:59:02;2.80;;;1.08;;
45642;SDS011;31358;46.008;11.144;2024-02-14T08:01:29;2.55;;;0.90;;
45642;SDS011;31358;46.008;11.144;2024-02-14T08:03:55;2.88;;;1.30;;
45642;SDS011;31358;46.008;11.144;2024-02-14T08:06:21;1.55;;;0.75;;
45642;SDS011;31358;46.008;11.144;2024-02-14T08:08:47;2.17;;;0.95;;
45642;SDS011;31358;46.008;11.144;2024-02-14T08:11:16;2.47;;;1.20;;
45642;SDS011;31358;46.008;11.144;2024-02-14T08:13:42;2.22;;;1.00;;
45642;SDS011;31358;46.008;11.144;2024-02-14T08:16:08;3.35;;;1.13;;
45642;SDS011;31358;46.008;11.144;2024-02-14T08:18:34;2.00;;;0.90;;
45642;SDS011;31358;46.008;11.144;2024-02-14T08:21:10;2.67;;;1.05;;
45642;SDS011;31358;46.008;11.144;2024-02-14T08:23:37;2.97;;;1.10;;
45642;SDS011;31358;46.008;11.144;2024-02-14T08:26:07;1.48;;;0.80;;
45642;SDS011;31358;46.008;11.144;2024-02-14T08:28:38;3.13;;;1.20;;
45642;SDS011;31358;46.008;11.144;2024-02-14T08:31:09;2.78;;;1.20;;
45642;SDS011;31358;46.008;11.144;2024-02-14T08:33:38;3.95;;;1.33;;
45642;SDS011;31358;46.008;11.144;2024-02-14T08:36:06;2.88;;;1.15;;
45642;SDS011;31358;46.008;11.144;2024-02-14T08:38:32;2.88;;;1.35;;
45642;SDS011;31358;46.008;11.144;2024-02-14T08:41:00;3.95;;;0.88;;
45642;SDS011;31358;46.008;11.144;2024-02-14T08:43:27;4.25;;;1.23;;
45642;SDS011;31358;46.008;11.144;2024-02-14T08:45:56;4.10;;;1.33;;
45642;SDS011;31358;46.008;11.144;2024-02-14T08:48:22;1.90;;;0.95;;
45642;SDS011;31358;46.008;11.144;2024-02-14T08:50:48;1.25;;;0.80;;
45642;SDS011;31358;46.008;11.144;2024-02-14T08:53:14;4.05;;;1.40;;
45642;SDS011;31358;46.008;11.144;2024-02-14T08:55:40;2.30;;;1.02;;
45642;SDS011;31358;46.008;11.144;2024-02-14T08:58:06;3.15;;;1.13;;
45642;SDS011;31358;46.008;11.144;2024-02-14T09:00:34;2.00;;;1.00;;
45642;SDS011;31358;46.008;11.144;2024-02-14T09:03:04;3.75;;;1.27;;
45642;SDS011;31358;46.008;11.144;2024-02-14T09:05:31;2.55;;;1.23;;
45642;SDS011;31358;46.008;11.144;2024-02-14T09:07:57;2.75;;;1.10;;
45642;SDS011;31358;46.008;11.144;2024-02-14T09:10:23;2.65;;;1.00;;
45642;SDS011;31358;46.008;11.144;2024-02-14T09:12:48;2.05;;;0.95;;
45642;SDS011;31358;46.008;11.144;2024-02-14T09:15:14;3.22;;;1.40;;
45642;SDS011;31358;46.008;11.144;2024-02-14T09:17:40;3.70;;;1.17;;
45642;SDS011;31358;46.008;11.144;2024-02-14T09:20:08;3.53;;;1.10;;
45642;SDS011;31358;46.008;11.144;2024-02-14T09:22:34;3.97;;;1.13;;
45642;SDS011;31358;46.008;11.144;2024-02-14T09:25:00;3.63;;;1.20;;
45642;SDS011;31358;46.008;11.144;2024-02-14T09:27:29;2.92;;;1.15;;
45642;SDS011;31358;46.008;11.144;2024-02-14T09:29:55;2.90;;;1.35;;
45642;SDS011;31358;46.008;11.144;2024-02-14T09:32:21;2.30;;;1.00;;
45642;SDS011;31358;46.008;11.144;2024-02-14T09:34:46;2.42;;;1.17;;
45642;SDS011;31358;46.008;11.144;2024-02-14T09:37:12;4.22;;;1.00;;
45642;SDS011;31358;46.008;11.144;2024-02-14T09:39:38;9.05;;;1.33;;
45642;SDS011;31358;46.008;11.144;2024-02-14T09:42:07;3.80;;;1.25;;
45642;SDS011;31358;46.008;11.144;2024-02-14T09:44:35;2.78;;;1.20;;
45642;SDS011;31358;46.008;11.144;2024-02-14T09:47:04;3.83;;;1.63;;
45642;SDS011;31358;46.008;11.144;2024-02-14T09:49:31;4.28;;;1.20;;
45642;SDS011;31358;46.008;11.144;2024-02-14T09:51:57;3.55;;;1.00;;
45642;SDS011;31358;46.008;11.144;2024-02-14T09:54:29;3.15;;;1.30;;
45642;SDS011;31358;46.008;11.144;2024-02-14T09:56:59;2.95;;;1.20;;
45642;SDS011;31358;46.008;11.144;2024-02-14T09:59:27;2.80;;;1.25;;
45642;SDS011;31358;46.008;11.144;2024-02-14T10:01:54;4.15;;;1.80;;
45642;SDS011;31358;46.008;11.144;2024-02-14T10:04:20;3.63;;;1.23;;
45642;SDS011;31358;46.008;11.144;2024-02-14T10:06:47;3.90;;;1.10;;
45642;SDS011;31358;46.008;11.144;2024-02-14T10:09:18;2.70;;;1.05;;
45642;SDS011;31358;46.008;11.144;2024-02-14T10:11:48;3.13;;;1.48;;
45642;SDS011;31358;46.008;11.144;2024-02-14T10:14:14;3.80;;;1.60;;
45642;SDS011;31358;46.008;11.144;2024-02-14T10:16:40;3.63;;;1.80;;
45642;SDS011;31358;46.008;11.144;2024-02-14T10:19:14;4.78;;;1.20;;
45642;SDS011;31358;46.008;11.144;2024-02-14T10:21:43;3.20;;;1.30;;
45642;SDS011;31358;46.008;11.144;2024-02-14T10:24:09;4.40;;;1.15;;
45642;SDS011;31358;46.008;11.144;2024-02-14T10:26:37;3.70;;;1.05;;
45642;SDS011;31358;46.008;11.144;2024-02-14T10:29:05;5.00;;;1.55;;
45642;SDS011;31358;46.008;11.144;2024-02-14T10:31:31;3.30;;;1.17;;
45642;SDS011;31358;46.008;11.144;2024-02-14T10:33:59;3.47;;;1.08;;
45642;SDS011;31358;46.008;11.144;2024-02-14T10:36:35;3.90;;;1.13;;
45642;SDS011;31358;46.008;11.144;2024-02-14T10:39:01;2.70;;;1.00;;
45642;SDS011;31358;46.008;11.144;2024-02-14T10:41:30;2.83;;;1.10;;
45642;SDS011;31358;46.008;11.144;2024-02-14T10:44:03;2.38;;;0.90;;
45642;SDS011;31358;46.008;11.144;2024-02-14T10:46:33;3.55;;;1.63;;
45642;SDS011;31358;46.008;11.144;2024-02-14T10:49:05;3.63;;;1.13;;
45642;SDS011;31358;46.008;11.144;2024-02-14T10:51:33;5.03;;;1.50;;
45642;SDS011;31358;46.008;11.144;2024-02-14T10:54:03;4.15;;;1.10;;
45642;SDS011;31358;46.008;11.144;2024-02-14T10:56:31;3.35;;;1.10;;
45642;SDS011;31358;46.008;11.144;2024-02-14T10:59:03;3.47;;;1.25;;
45642;SDS011;31358;46.008;11.144;2024-02-14T11:01:33;3.03;;;1.30;;
45642;SDS011;31358;46.008;11.144;2024-02-14T11:04:00;4.47;;;1.17;;
45642;SDS011;31358;46.008;11.144;2024-02-14T11:06:27;3.03;;;1.08;;
45642;SDS011;31358;46.008;11.144;2024-02-14T11:08:57;2.05;;;1.05;;
45642;SDS011;31358;46.008;11.144;2024-02-14T11:11:28;1.52;;;0.77;;
45642;SDS011;31358;46.008;11.144;2024-02-14T11:13:55;4.05;;;1.00;;
45642;SDS011;31358;46.008;11.144;2024-02-14T11:16:25;2.85;;;1.15;;
45642;SDS011;31358;46.008;11.144;2024-02-14T11:18:53;4.43;;;2.33;;
45642;SDS011;31358;46.008;11.144;2024-02-14T11:21:42;2.10;;;0.98;;
45642;SDS011;31358;46.008;11.144;2024-02-14T11:24:09;3.40;;;1.27;;
45642;SDS011;31358;46.008;11.144;2024-02-14T11:26:48;3.88;;;1.48;;
45642;SDS011;31358;46.008;11.144;2024-02-14T11:29:19;4.45;;;1.50;;
45642;SDS011;31358;46.008;11.144;2024-02-14T11:31:45;7.07;;;3.08;;
45642;SDS011;31358;46.008;11.144;2024-02-14T11:34:13;12.80;;;7.75;;
45642;SDS011;31358;46.008;11.144;2024-02-14T11:36:41;6.80;;;4.22;;
45642;SDS011;31358;46.008;11.144;2024-02-14T11:39:07;5.25;;;2.78;;
45642;SDS011;31358;46.008;11.144;2024-02-14T11:41:33;5.78;;;2.35;;
45642;SDS011;31358;46.008;11.144;2024-02-14T11:44:03;5.82;;;2.40;;
45642;SDS011;31358;46.008;11.144;2024-02-14T11:46:32;2.50;;;1.20;;
45642;SDS011;31358;46.008;11.144;2024-02-14T11:49:00;3.38;;;1.30;;
45642;SDS011;31358;46.008;11.144;2024-02-14T11:51:30;2.55;;;1.10;;
45642;SDS011;31358;46.008;11.144;2024-02-14T11:53:57;2.47;;;1.02;;
45642;SDS011;31358;46.008;11.144;2024-02-14T11:56:31;1.88;;;0.95;;
45642;SDS011;31358;46.008;11.144;2024-02-14T11:59:04;2.42;;;1.08;;
45642;SDS011;31358;46.008;11.144;2024-02-14T12:01:31;2.47;;;1.23;;
45642;SDS011;31358;46.008;11.144;2024-02-14T12:03:58;3.22;;;1.13;;
45642;SDS011;31358;46.008;11.144;2024-02-14T12:06:29;4.70;;;1.05;;
45642;SDS011;31358;46.008;11.144;2024-02-14T12:09:03;3.17;;;1.38;;
45642;SDS011;31358;46.008;11.144;2024-02-14T12:11:36;3.80;;;1.80;;
45642;SDS011;31358;46.008;11.144;2024-02-14T12:14:06;2.65;;;1.13;;
45642;SDS011;31358;46.008;11.144;2024-02-14T12:16:35;3.28;;;1.30;;
45642;SDS011;31358;46.008;11.144;2024-02-14T12:19:15;4.32;;;1.80;;
45642;SDS011;31358;46.008;11.144;2024-02-14T12:21:41;5.28;;;1.65;;
45642;SDS011;31358;46.008;11.144;2024-02-14T12:24:10;24.77;;;10.98;;
45642;SDS011;31358;46.008;11.144;2024-02-14T12:26:37;40.38;;;15.40;;
45642;SDS011;31358;46.008;11.144;2024-02-14T12:29:04;12.25;;;5.20;;
45642;SDS011;31358;46.008;11.144;2024-02-14T12:31:31;5.07;;;1.85;;
45642;SDS011;31358;46.008;11.144;2024-02-14T12:33:58;4.20;;;1.27;;
45642;SDS011;31358;46.008;11.144;2024-02-14T12:36:31;4.70;;;1.00;;
45642;SDS011;31358;46.008;11.144;2024-02-14T12:38:58;6.20;;;2.70;;
45642;SDS011;31358;46.008;11.144;2024-02-14T12:41:27;4.75;;;2.15;;
45642;SDS011;31358;46.008;11.144;2024-02-14T12:43:54;4.47;;;1.77;;
45642;SDS011;31358;46.008;11.144;2024-02-14T12:46:20;9.23;;;4.25;;
45642;SDS011;31358;46.008;11.144;2024-02-14T12:48:46;4.10;;;1.63;;
45642;SDS011;31358;46.008;11.144;2024-02-14T12:51:13;4.85;;;1.90;;
45642;SDS011;31358;46.008;11.144;2024-02-14T12:53:39;2.92;;;1.10;;
45642;SDS011;31358;46.008;11.144;2024-02-14T12:56:05;3.63;;;1.38;;
45642;SDS011;31358;46.008;11.144;2024-02-14T12:58:32;5.43;;;1.50;;
45642;SDS011;31358;46.008;11.144;2024-02-14T13:00:58;32.22;;;20.05;;
45642;SDS011;31358;46.008;11.144;2024-02-14T13:03:24;28.10;;;14.25;;
45642;SDS011;31358;46.008;11.144;2024-02-14T13:05:50;12.32;;;6.53;;
45642;SDS011;31358;46.008;11.144;2024-02-14T13:08:19;19.08;;;9.00;;
45642;SDS011;31358;46.008;11.144;2024-02-14T13:10:45;9.88;;;5.43;;
45642;SDS011;31358;46.008;11.144;2024-02-14T13:13:11;3.42;;;1.60;;
45642;SDS011;31358;46.008;11.144;2024-02-14T13:15:37;5.20;;;1.40;;
45642;SDS011;31358;46.008;11.144;2024-02-14T13:18:03;14.18;;;6.00;;
45642;SDS011;31358;46.008;11.144;2024-02-14T13:20:29;10.25;;;5.25;;
45642;SDS011;31358;46.008;11.144;2024-02-14T13:22:55;3.78;;;2.15;;
45642;SDS011;31358;46.008;11.144;2024-02-14T13:25:20;3.67;;;1.27;;
45642;SDS011;31358;46.008;11.144;2024-02-14T13:27:46;6.00;;;2.00;;
45642;SDS011;31358;46.008;11.144;2024-02-14T13:30:12;8.73;;;3.88;;
45642;SDS011;31358;46.008;11.144;2024-02-14T13:32:38;2.88;;;1.48;;
45642;SDS011;31358;46.008;11.144;2024-02-14T13:35:04;5.53;;;2.05;;
45642;SDS011;31358;46.008;11.144;2024-02-14T13:37:34;3.33;;;1.10;;
45642;SDS011;31358;46.008;11.144;2024-02-14T13:40:01;1.90;;;0.90;;
45642;SDS011;31358;46.008;11.144;2024-02-14T13:42:29;2.03;;;0.82;;
45642;SDS011;31358;46.008;11.144;2024-02-14T13:44:55;4.57;;;1.88;;
45642;SDS011;31358;46.008;11.144;2024-02-14T13:47:21;9.75;;;4.18;;
45642;SDS011;31358;46.008;11.144;2024-02-14T13:49:48;3.97;;;1.63;;
45642;SDS011;31358;46.008;11.144;2024-02-14T13:52:14;3.05;;;1.17;;
45642;SDS011;31358;46.008;11.144;2024-02-14T13:54:40;2.88;;;0.80;;
45642;SDS011;31358;46.008;11.144;2024-02-14T13:57:06;1.23;;;0.70;;
45642;SDS011;31358;46.008;11.144;2024-02-14T13:59:32;11.43;;;5.97;;
45642;SDS011;31358;46.008;11.144;2024-02-14T14:01:58;5.88;;;3.38;;
45642;SDS011;31358;46.008;11.144;2024-02-14T14:04:24;3.80;;;2.00;;
45642;SDS011;31358;46.008;11.144;2024-02-14T14:06:50;3.13;;;1.15;;
45642;SDS011;31358;46.008;11.144;2024-02-14T14:09:16;4.35;;;1.73;;
45642;SDS011;31358;46.008;11.144;2024-02-14T14:11:42;2.15;;;0.88;;
45642;SDS011;31358;46.008;11.144;2024-02-14T14:14:08;1.80;;;0.82;;
45642;SDS011;31358;46.008;11.144;2024-02-14T14:16:36;2.60;;;0.73;;
45642;SDS011;31358;46.008;11.144;2024-02-14T14:19:02;3.95;;;2.08;;
45642;SDS011;31358;46.008;11.144;2024-02-14T14:21:28;3.35;;;1.52;;
45642;SDS011;31358;46.008;11.144;2024-02-14T14:23:54;17.33;;;6.68;;
45642;SDS011;31358;46.008;11.144;2024-02-14T14:26:20;20.55;;;8.68;;
45642;SDS011;31358;46.008;11.144;2024-02-14T14:28:46;47.47;;;18.48;;
45642;SDS011;31358;46.008;11.144;2024-02-14T14:31:12;27.05;;;11.38;;
45642;SDS011;31358;46.008;11.144;2024-02-14T14:33:37;13.10;;;5.40;;
45642;SDS011;31358;46.008;11.144;2024-02-14T14:36:04;8.27;;;2.50;;